sensor_id;sensor_type;location;lat;lon;timestamp;pressure;altitude;pressure_sealevel;temperature;humidity
29907;BME280;16776;50.958;10.994;2024-03-22T00:02:00;99100.16;;;5.64;91.57
29907;BME280;16776;50.958;10.994;2024-03-22T00:04:28;99101.88;;;5.65;91.34
29907;BME280;16776;50.958;10.994;2024-03-22T00:06:54;99090.81;;;5.62;91.59
29907;BME280;16776;50.958;10.994;2024-03-22T00:09:20;99089.97;;;5.60;91.34
29907;BME280;16776;50.958;10.994;2024-03-22T00:11:46;99092.50;;;5.60;91.37
29907;BME280;16776;50.958;10.994;2024-03-22T00:14:12;99084.84;;;5.58;91.54
29907;BME280;16776;50.958;10.994;2024-03-22T00:16:38;99078.03;;;5.57;91.67
29907;BME280;16776;50.958;10.994;2024-03-22T00:19:05;99072.06;;;5.57;91.89
29907;BME280;16776;50.958;10.994;2024-03-22T00:21:32;99074.63;;;5.58;91.53
29907;BME280;16776;50.958;10.994;2024-03-22T00:23:59;99061.88;;;5.55;91.43
29907;BME280;16776;50.958;10.994;2024-03-22T00:26:26;99066.97;;;5.54;91.73
29907;BME280;16776;50.958;10.994;2024-03-22T00:28:52;99062.69;;;5.51;91.67
29907;BME280;16776;50.958;10.994;2024-03-22T00:31:18;99061.88;;;5.49;91.42
29907;BME280;16776;50.958;10.994;2024-03-22T00:33:45;99052.47;;;5.45;91.63
29907;BME280;16776;50.958;10.994;2024-03-22T00:36:10;99048.22;;;5.41;91.79
29907;BME280;16776;50.958;10.994;2024-03-22T00:38:38;99042.25;;;5.40;91.42
29907;BME280;16776;50.958;10.994;2024-03-22T00:41:04;99049.06;;;5.35;91.82
29907;BME280;16776;50.958;10.994;2024-03-22T00:43:30;99045.66;;;5.32;91.63
29907;BME280;16776;50.958;10.994;2024-03-22T00:45:56;99040.56;;;5.29;91.68
29907;BME280;16776;50.958;10.994;2024-03-22T00:48:23;99034.56;;;5.25;91.73
29907;BME280;16776;50.958;10.994;2024-03-22T00:50:49;99023.53;;;5.22;92.09
29907;BME280;16776;50.958;10.994;2024-03-22T00:53:15;99017.53;;;5.18;91.89
29907;BME280;16776;50.958;10.994;2024-03-22T00:55:43;99020.09;;;5.18;92.34
29907;BME280;16776;50.958;10.994;2024-03-22T00:58:09;99020.06;;;5.15;91.87
29907;BME280;16776;50.958;10.994;2024-03-22T01:00:35;99015.81;;;5.14;91.79
29907;BME280;16776;50.958;10.994;2024-03-22T01:03:03;99010.72;;;5.14;92.04
29907;BME280;16776;50.958;10.994;2024-03-22T01:05:29;99008.16;;;5.13;91.95
29907;BME280;16776;50.958;10.994;2024-03-22T01:07:55;98993.69;;;5.13;92.00
29907;BME280;16776;50.958;10.994;2024-03-22T01:10:21;99003.91;;;5.13;92.29
29907;BME280;16776;50.958;10.994;2024-03-22T01:12:49;98993.69;;;5.16;92.05
29907;BME280;16776;50.958;10.994;2024-03-22T01:15:14;98983.47;;;5.13;92.51
29907;BME280;16776;50.958;10.994;2024-03-22T01:17:41;98990.28;;;5.13;92.22
29907;BME280;16776;50.958;10.994;2024-03-22T01:20:07;98973.25;;;5.01;92.46
29907;BME280;16776;50.958;10.994;2024-03-22T01:22:34;98982.63;;;5.10;91.88
29907;BME280;16776;50.958;10.994;2024-03-22T01:24:59;98991.13;;;5.09;92.06
29907;BME280;16776;50.958;10.994;2024-03-22T01:27:26;98986.03;;;5.07;92.25
29907;BME280;16776;50.958;10.994;2024-03-22T01:29:53;98981.78;;;5.07;92.63
29907;BME280;16776;50.958;10.994;2024-03-22T01:32:19;98980.91;;;5.05;92.32
29907;BME280;16776;50.958;10.994;2024-03-22T01:34:45;98976.69;;;5.04;92.73
29907;BME280;16776;50.958;10.994;2024-03-22T01:37:11;98975.81;;;5.05;92.85
29907;BME280;16776;50.958;10.994;2024-03-22T01:39:37;98969.84;;;5.06;92.51
29907;BME280;16776;50.958;10.994;2024-03-22T01:42:03;98968.16;;;5.07;92.73
29907;BME280;16776;50.958;10.994;2024-03-22T01:44:31;98966.44;;;5.12;92.02
29907;BME280;16776;50.958;10.994;2024-03-22T01:47:00;98955.38;;;5.12;92.41
29907;BME280;16776;50.958;10.994;2024-03-22T01:49:26;98957.09;;;5.10;92.62
29907;BME280;16776;50.958;10.994;2024-03-22T01:51:53;98952.00;;;5.08;93.03
29907;BME280;16776;50.958;10.994;2024-03-22T01:54:19;98954.56;;;5.10;92.53
29907;BME280;16776;50.958;10.994;2024-03-22T01:56:46;98957.94;;;5.09;92.46
29907;BME280;16776;50.958;10.994;2024-03-22T01:59:12;98931.56;;;5.00;92.74
29907;BME280;16776;50.958;10.994;2024-03-22T02:01:39;98942.63;;;5.09;92.65
29907;BME280;16776;50.958;10.994;2024-03-22T02:04:06;98941.78;;;5.11;93.15
29907;BME280;16776;50.958;10.994;2024-03-22T02:06:33;98938.38;;;5.07;93.22
29907;BME280;16776;50.958;10.994;2024-03-22T02:08:59;98938.38;;;5.11;93.11
29907;BME280;16776;50.958;10.994;2024-03-22T02:11:26;98918.81;;;5.00;92.46
29907;BME280;16776;50.958;10.994;2024-03-22T02:13:52;98934.97;;;5.13;92.72
29907;BME280;16776;50.958;10.994;2024-03-22T02:16:18;98933.28;;;5.14;93.01
29907;BME280;16776;50.958;10.994;2024-03-22T02:18:44;98888.19;;;4.85;92.90
29907;BME280;16776;50.958;10.994;2024-03-22T02:21:12;98924.78;;;5.16;92.80
29907;BME280;16776;50.958;10.994;2024-03-22T02:23:40;98933.31;;;5.17;92.64
29907;BME280;16776;50.958;10.994;2024-03-22T02:26:07;98932.41;;;5.15;92.37
29907;BME280;16776;50.958;10.994;2024-03-22T02:28:34;98935.81;;;5.14;93.03
29907;BME280;16776;50.958;10.994;2024-03-22T02:31:01;98935.81;;;5.14;92.61
29907;BME280;16776;50.958;10.994;2024-03-22T02:33:27;98931.56;;;5.10;92.48
29907;BME280;16776;50.958;10.994;2024-03-22T02:35:54;98931.56;;;5.13;92.78
29907;BME280;16776;50.958;10.994;2024-03-22T02:38:20;98931.56;;;5.13;93.04
29907;BME280;16776;50.958;10.994;2024-03-22T02:40:51;98934.13;;;5.16;92.98
29907;BME280;16776;50.958;10.994;2024-03-22T02:43:16;98926.47;;;5.13;92.60
29907;BME280;16776;50.958;10.994;2024-03-22T02:45:44;98922.19;;;5.13;92.63
29907;BME280;16776;50.958;10.994;2024-03-22T02:48:09;98918.81;;;5.14;92.31
29907;BME280;16776;50.958;10.994;2024-03-22T02:50:36;98915.41;;;5.14;92.77
29907;BME280;16776;50.958;10.994;2024-03-22T02:53:03;98912.00;;;5.13;92.86
29907;BME280;16776;50.958;10.994;2024-03-22T02:55:35;98907.75;;;5.11;92.48
29907;BME280;16776;50.958;10.994;2024-03-22T02:58:03;98912.84;;;5.14;92.60
29907;BME280;16776;50.958;10.994;2024-03-22T03:00:29;98906.06;;;5.10;93.12
29907;BME280;16776;50.958;10.994;2024-03-22T03:02:55;98900.94;;;5.08;92.81
29907;BME280;16776;50.958;10.994;2024-03-22T03:05:21;98906.91;;;5.10;92.68
29907;BME280;16776;50.958;10.994;2024-03-22T03:07:48;98904.34;;;5.09;92.58
29907;BME280;16776;50.958;10.994;2024-03-22T03:10:15;98903.50;;;5.08;92.99
29907;BME280;16776;50.958;10.994;2024-03-22T03:12:41;98905.19;;;5.07;92.57
29907;BME280;16776;50.958;10.994;2024-03-22T03:15:09;98908.59;;;5.10;93.17
29907;BME280;16776;50.958;10.994;2024-03-22T03:17:35;98906.88;;;5.07;92.88
29907;BME280;16776;50.958;10.994;2024-03-22T03:20:01;98898.38;;;5.08;92.74
29907;BME280;16776;50.958;10.994;2024-03-22T03:22:27;98894.13;;;5.05;92.57
29907;BME280;16776;50.958;10.994;2024-03-22T03:24:54;98888.19;;;5.03;92.88
29907;BME280;16776;50.958;10.994;2024-03-22T03:27:19;98882.22;;;5.01;92.71
29907;BME280;16776;50.958;10.994;2024-03-22T03:29:46;98883.91;;;4.99;92.75
29907;BME280;16776;50.958;10.994;2024-03-22T03:32:13;98873.69;;;4.99;92.71
29907;BME280;16776;50.958;10.994;2024-03-22T03:34:39;98866.91;;;4.94;92.13
29907;BME280;16776;50.958;10.994;2024-03-22T03:37:05;98867.78;;;4.91;92.55
29907;BME280;16776;50.958;10.994;2024-03-22T03:39:31;98860.94;;;4.87;92.39
29907;BME280;16776;50.958;10.994;2024-03-22T03:41:57;98856.72;;;4.83;92.83
29907;BME280;16776;50.958;10.994;2024-03-22T03:44:24;98855.03;;;4.79;92.30
29907;BME280;16776;50.958;10.994;2024-03-22T03:46:49;98855.84;;;4.75;92.21
29907;BME280;16776;50.958;10.994;2024-03-22T03:49:17;98847.34;;;4.73;93.16
29907;BME280;16776;50.958;10.994;2024-03-22T03:51:43;98853.31;;;4.69;92.20
29907;BME280;16776;50.958;10.994;2024-03-22T03:54:09;98851.59;;;4.68;93.12
29907;BME280;16776;50.958;10.994;2024-03-22T03:56:35;98843.94;;;4.66;93.25
29907;BME280;16776;50.958;10.994;2024-03-22T03:59:01;98848.22;;;4.66;92.26
29907;BME280;16776;50.958;10.994;2024-03-22T04:01:27;98842.25;;;4.65;93.01
29907;BME280;16776;50.958;10.994;2024-03-22T04:03:53;98846.50;;;4.65;93.26
29907;BME280;16776;50.958;10.994;2024-03-22T04:06:20;98841.41;;;4.65;92.83
29907;BME280;16776;50.958;10.994;2024-03-22T04:08:47;98845.66;;;4.66;92.80
29907;BME280;16776;50.958;10.994;2024-03-22T04:11:12;98843.94;;;4.68;93.44
29907;BME280;16776;50.958;10.994;2024-03-22T04:13:39;98843.94;;;4.68;93.03
29907;BME280;16776;50.958;10.994;2024-03-22T04:16:05;98843.09;;;4.71;92.88
29907;BME280;16776;50.958;10.994;2024-03-22T04:18:32;98851.59;;;4.71;93.48
29907;BME280;16776;50.958;10.994;2024-03-22T04:20:59;98843.13;;;4.72;93.31
29907;BME280;16776;50.958;10.994;2024-03-22T04:23:27;98848.19;;;4.74;93.06
29907;BME280;16776;50.958;10.994;2024-03-22T04:25:54;98832.03;;;4.69;93.06
29907;BME280;16776;50.958;10.994;2024-03-22T04:28:20;98835.44;;;4.71;92.95
29907;BME280;16776;50.958;10.994;2024-03-22T04:30:55;98830.34;;;4.77;94.04
29907;BME280;16776;50.958;10.994;2024-03-22T04:35:53;98821.00;;;4.71;92.88
29907;BME280;16776;50.958;10.994;2024-03-22T04:38:19;98823.56;;;4.71;93.63
29907;BME280;16776;50.958;10.994;2024-03-22T04:40:47;98817.59;;;4.72;93.72
29907;BME280;16776;50.958;10.994;2024-03-22T04:43:14;98809.94;;;4.71;92.93
29907;BME280;16776;50.958;10.994;2024-03-22T04:45:42;98803.97;;;4.69;92.98
29907;BME280;16776;50.958;10.994;2024-03-22T04:48:08;98798.88;;;4.67;93.11
29907;BME280;16776;50.958;10.994;2024-03-22T04:50:34;98809.94;;;4.66;93.69
29907;BME280;16776;50.958;10.994;2024-03-22T04:53:01;98795.50;;;4.65;93.20
29907;BME280;16776;50.958;10.994;2024-03-22T04:55:26;98787.84;;;4.65;93.45
29907;BME280;16776;50.958;10.994;2024-03-22T04:57:54;98776.78;;;4.66;93.37
29907;BME280;16776;50.958;10.994;2024-03-22T05:00:20;98778.47;;;4.64;93.75
29907;BME280;16776;50.958;10.994;2024-03-22T05:02:47;98781.88;;;4.63;93.57
29907;BME280;16776;50.958;10.994;2024-03-22T05:05:13;98783.59;;;4.64;93.59
29907;BME280;16776;50.958;10.994;2024-03-22T05:07:39;98777.63;;;4.65;94.10
29907;BME280;16776;50.958;10.994;2024-03-22T05:10:05;98775.09;;;4.65;94.55
29907;BME280;16776;50.958;10.994;2024-03-22T05:12:32;98763.19;;;4.64;94.50
29907;BME280;16776;50.958;10.994;2024-03-22T05:15:00;98763.16;;;4.69;94.59
29907;BME280;16776;50.958;10.994;2024-03-22T05:17:26;98766.56;;;4.69;94.97
29907;BME280;16776;50.958;10.994;2024-03-22T05:19:53;98761.47;;;4.72;95.52
29907;BME280;16776;50.958;10.994;2024-03-22T05:22:19;98763.16;;;4.79;96.69
29907;BME280;16776;50.958;10.994;2024-03-22T05:24:47;98758.03;;;4.91;97.29
29907;BME280;16776;50.958;10.994;2024-03-22T05:27:12;98762.25;;;5.06;96.96
29907;BME280;16776;50.958;10.994;2024-03-22T05:29:39;98745.22;;;5.16;96.72
29907;BME280;16776;50.958;10.994;2024-03-22T05:32:07;98752.88;;;5.28;96.18
29907;BME280;16776;50.958;10.994;2024-03-22T05:34:33;98757.09;;;5.32;96.26
29907;BME280;16776;50.958;10.994;2024-03-22T05:37:00;98758.78;;;5.39;95.82
29907;BME280;16776;50.958;10.994;2024-03-22T05:39:27;98749.38;;;5.44;95.80
29907;BME280;16776;50.958;10.994;2024-03-22T05:41:53;98744.28;;;5.49;95.84
29907;BME280;16776;50.958;10.994;2024-03-22T05:44:21;98748.50;;;5.53;95.98
29907;BME280;16776;50.958;10.994;2024-03-22T05:46:46;98748.50;;;5.56;96.08
29907;BME280;16776;50.958;10.994;2024-03-22T05:49:14;98746.78;;;5.62;95.64
29907;BME280;16776;50.958;10.994;2024-03-22T05:51:40;98747.59;;;5.63;95.52
29907;BME280;16776;50.958;10.994;2024-03-22T05:54:06;98740.78;;;5.63;95.54
29907;BME280;16776;50.958;10.994;2024-03-22T05:56:32;98745.03;;;5.69;95.45
29907;BME280;16776;50.958;10.994;2024-03-22T05:58:59;98746.69;;;5.71;95.95
29907;BME280;16776;50.958;10.994;2024-03-22T06:01:25;98744.13;;;5.76;96.42
29907;BME280;16776;50.958;10.994;2024-03-22T06:03:51;98749.22;;;5.80;95.85
29907;BME280;16776;50.958;10.994;2024-03-22T06:06:18;98746.63;;;5.88;96.00
29907;BME280;16776;50.958;10.994;2024-03-22T06:08:47;98738.94;;;5.90;96.10
29907;BME280;16776;50.958;10.994;2024-03-22T06:11:17;98744.84;;;5.95;96.12
29907;BME280;16776;50.958;10.994;2024-03-22T06:13:44;98740.59;;;5.98;96.21
29907;BME280;16776;50.958;10.994;2024-03-22T06:16:09;98738.84;;;6.05;96.11
29907;BME280;16776;50.958;10.994;2024-03-22T06:18:36;98740.50;;;6.12;95.75
29907;BME280;16776;50.958;10.994;2024-03-22T06:21:02;98742.16;;;6.16;96.53
29907;BME280;16776;50.958;10.994;2024-03-22T06:23:31;98734.44;;;6.23;96.62
29907;BME280;16776;50.958;10.994;2024-03-22T06:25:57;98737.84;;;6.25;95.83
29907;BME280;16776;50.958;10.994;2024-03-22T06:28:26;98727.56;;;6.32;96.58
29907;BME280;16776;50.958;10.994;2024-03-22T06:30:52;98739.50;;;6.33;96.45
29907;BME280;16776;50.958;10.994;2024-03-22T06:33:19;98725.81;;;6.37;96.20
29907;BME280;16776;50.958;10.994;2024-03-22T06:35:45;98735.16;;;6.41;96.15
29907;BME280;16776;50.958;10.994;2024-03-22T06:38:12;98736.84;;;6.43;96.88
29907;BME280;16776;50.958;10.994;2024-03-22T06:40:39;98736.78;;;6.49;96.53
29907;BME280;16776;50.958;10.994;2024-03-22T06:43:05;98729.97;;;6.50;96.09
29907;BME280;16776;50.958;10.994;2024-03-22T06:45:31;98727.34;;;6.53;97.02
29907;BME280;16776;50.958;10.994;2024-03-22T06:47:58;98723.09;;;6.56;96.39
29907;BME280;16776;50.958;10.994;2024-03-22T06:50:23;98728.16;;;6.59;96.58
29907;BME280;16776;50.958;10.994;2024-03-22T06:52:50;98731.56;;;6.63;96.97
29907;BME280;16776;50.958;10.994;2024-03-22T06:55:16;98717.00;;;6.68;97.00
29907;BME280;16776;50.958;10.994;2024-03-22T06:57:45;98711.00;;;6.74;96.95
29907;BME280;16776;50.958;10.994;2024-03-22T07:00:12;98711.84;;;6.77;96.85
29907;BME280;16776;50.958;10.994;2024-03-22T07:02:38;98704.97;;;6.81;97.17
29907;BME280;16776;50.958;10.994;2024-03-22T07:05:05;98707.50;;;6.84;97.31
29907;BME280;16776;50.958;10.994;2024-03-22T07:07:31;98670.09;;;6.66;96.11
29907;BME280;16776;50.958;10.994;2024-03-22T07:09:57;98702.31;;;6.90;97.03
29907;BME280;16776;50.958;10.994;2024-03-22T07:12:23;98703.97;;;6.94;96.80
29907;BME280;16776;50.958;10.994;2024-03-22T07:14:50;98704.72;;;7.02;97.42
29907;BME280;16776;50.958;10.994;2024-03-22T07:17:17;98706.38;;;7.06;97.81
29907;BME280;16776;50.958;10.994;2024-03-22T07:19:43;98708.88;;;7.12;97.42
29907;BME280;16776;50.958;10.994;2024-03-22T07:22:09;98703.69;;;7.17;97.57
29907;BME280;16776;50.958;10.994;2024-03-22T07:24:35;98696.81;;;7.22;97.27
29907;BME280;16776;50.958;10.994;2024-03-22T07:27:02;98701.88;;;7.26;97.17
29907;BME280;16776;50.958;10.994;2024-03-22T07:29:27;98702.66;;;7.33;98.22
29907;BME280;16776;50.958;10.994;2024-03-22T07:31:55;98701.69;;;7.41;98.25
29907;BME280;16776;50.958;10.994;2024-03-22T07:34:21;98699.91;;;7.47;97.28
29907;BME280;16776;50.958;10.994;2024-03-22T07:36:47;98699.84;;;7.53;98.11
29907;BME280;16776;50.958;10.994;2024-03-22T07:39:13;98692.09;;;7.57;98.04
29907;BME280;16776;50.958;10.994;2024-03-22T07:41:40;98697.97;;;7.65;98.56
29907;BME280;16776;50.958;10.994;2024-03-22T07:44:05;98694.44;;;7.71;98.42
29907;BME280;16776;50.958;10.994;2024-03-22T07:46:32;98690.09;;;7.77;97.71
29907;BME280;16776;50.958;10.994;2024-03-22T07:48:59;98694.25;;;7.84;98.30
29907;BME280;16776;50.958;10.994;2024-03-22T07:51:27;98693.34;;;7.87;98.15
29907;BME280;16776;50.958;10.994;2024-03-22T07:53:52;98688.13;;;7.93;97.88
29907;BME280;16776;50.958;10.994;2024-03-22T07:56:19;98690.59;;;8.01;97.74
29907;BME280;16776;50.958;10.994;2024-03-22T07:58:44;98684.50;;;8.06;98.50
29907;BME280;16776;50.958;10.994;2024-03-22T08:01:12;98658.22;;;7.94;98.26
29907;BME280;16776;50.958;10.994;2024-03-22T08:03:37;98687.72;;;8.22;97.86
29907;BME280;16776;50.958;10.994;2024-03-22T08:06:06;98684.97;;;8.33;98.13
29907;BME280;16776;50.958;10.994;2024-03-22T08:08:31;98678.88;;;8.38;98.68
29907;BME280;16776;50.958;10.994;2024-03-22T08:10:58;98670.19;;;8.47;98.32
29907;BME280;16776;50.958;10.994;2024-03-22T08:13:23;98675.19;;;8.54;98.24
29907;BME280;16776;50.958;10.994;2024-03-22T08:15:50;98670.78;;;8.61;98.08
29907;BME280;16776;50.958;10.994;2024-03-22T08:18:15;98672.38;;;8.70;98.32
29907;BME280;16776;50.958;10.994;2024-03-22T08:20:42;98673.03;;;8.79;98.27
29907;BME280;16776;50.958;10.994;2024-03-22T08:23:09;98670.31;;;8.87;98.90
29907;BME280;16776;50.958;10.994;2024-03-22T08:25:35;98665.03;;;8.94;98.66
29907;BME280;16776;50.958;10.994;2024-03-22T08:28:02;98666.59;;;9.01;98.48
29907;BME280;16776;50.958;10.994;2024-03-22T08:30:29;98663.84;;;9.11;97.95
29907;BME280;16776;50.958;10.994;2024-03-22T08:32:54;98667.09;;;9.19;98.57
29907;BME280;16776;50.958;10.994;2024-03-22T08:35:21;98671.25;;;9.26;98.96
29907;BME280;16776;50.958;10.994;2024-03-22T08:37:46;98665.91;;;9.35;98.24
29907;BME280;16776;50.958;10.994;2024-03-22T08:40:14;98662.31;;;9.45;98.14
29907;BME280;16776;50.958;10.994;2024-03-22T08:42:40;98662.13;;;9.53;98.11
29907;BME280;16776;50.958;10.994;2024-03-22T08:45:08;98660.19;;;9.62;98.13
29907;BME280;16776;50.958;10.994;2024-03-22T08:47:34;98648.03;;;9.70;98.60
29907;BME280;16776;50.958;10.994;2024-03-22T08:50:00;98650.41;;;9.78;98.39
29907;BME280;16776;50.958;10.994;2024-03-22T08:52:26;98645.88;;;9.88;98.05
29907;BME280;16776;50.958;10.994;2024-03-22T08:54:53;98639.69;;;9.96;97.79
29907;BME280;16776;50.958;10.994;2024-03-22T08:57:20;98637.63;;;10.10;98.00
29907;BME280;16776;50.958;10.994;2024-03-22T08:59:47;98637.47;;;10.16;97.43
29907;BME280;16776;50.958;10.994;2024-03-22T09:02:13;98618.53;;;10.19;97.84
29907;BME280;16776;50.958;10.994;2024-03-22T09:04:40;98624.13;;;10.36;97.55
29907;BME280;16776;50.958;10.994;2024-03-22T09:07:05;98626.38;;;10.48;97.61
29907;BME280;16776;50.958;10.994;2024-03-22T09:09:32;98623.53;;;10.59;97.33
29907;BME280;16776;50.958;10.994;2024-03-22T09:11:58;98612.06;;;10.69;97.04
29907;BME280;16776;50.958;10.994;2024-03-22T09:14:25;98616.13;;;10.78;97.25
29907;BME280;16776;50.958;10.994;2024-03-22T09:16:52;98615.94;;;10.85;96.66
29907;BME280;16776;50.958;10.994;2024-03-22T09:19:18;98616.56;;;10.93;96.66
29907;BME280;16776;50.958;10.994;2024-03-22T09:21:44;98603.50;;;10.99;96.48
29907;BME280;16776;50.958;10.994;2024-03-22T09:24:10;98596.44;;;11.06;96.47
29907;BME280;16776;50.958;10.994;2024-03-22T09:26:36;98594.56;;;11.11;96.03
29907;BME280;16776;50.958;10.994;2024-03-22T09:29:02;98580.63;;;11.18;96.24
29907;BME280;16776;50.958;10.994;2024-03-22T09:31:30;98583.72;;;11.29;96.22
29907;BME280;16776;50.958;10.994;2024-03-22T09:33:57;98586.19;;;11.32;96.00
29907;BME280;16776;50.958;10.994;2024-03-22T09:36:24;98585.03;;;11.42;96.10
29907;BME280;16776;50.958;10.994;2024-03-22T09:38:50;98570.34;;;11.44;96.13
29907;BME280;16776;50.958;10.994;2024-03-22T09:41:24;98575.84;;;11.62;95.94
29907;BME280;16776;50.958;10.994;2024-03-22T09:43:51;98574.16;;;11.59;96.02
29907;BME280;16776;50.958;10.994;2024-03-22T09:46:18;98579.94;;;11.69;95.80
29907;BME280;16776;50.958;10.994;2024-03-22T09:48:47;98560.78;;;11.76;95.65
29907;BME280;16776;50.958;10.994;2024-03-22T09:51:15;98565.06;;;11.77;95.55
29907;BME280;16776;50.958;10.994;2024-03-22T09:53:43;98555.47;;;11.80;95.45
29907;BME280;16776;50.958;10.994;2024-03-22T09:56:12;98556.19;;;11.84;95.30
29907;BME280;16776;50.958;10.994;2024-03-22T09:58:39;98549.25;;;11.86;95.33
29907;BME280;16776;50.958;10.994;2024-03-22T10:01:07;98542.31;;;11.88;95.52
29907;BME280;16776;50.958;10.994;2024-03-22T10:03:33;98539.56;;;11.93;95.33
29907;BME280;16776;50.958;10.994;2024-03-22T10:06:01;98535.00;;;12.01;95.72
29907;BME280;16776;50.958;10.994;2024-03-22T10:08:27;98518.50;;;12.05;96.22
29907;BME280;16776;50.958;10.994;2024-03-22T10:10:53;98522.50;;;12.13;96.08
29907;BME280;16776;50.958;10.994;2024-03-22T10:13:19;98522.97;;;12.24;96.19
29907;BME280;16776;50.958;10.994;2024-03-22T10:15:46;98525.97;;;12.37;96.14
29907;BME280;16776;50.958;10.994;2024-03-22T10:18:11;98517.00;;;12.47;95.92
29907;BME280;16776;50.958;10.994;2024-03-22T10:20:40;98518.31;;;12.59;95.69
29907;BME280;16776;50.958;10.994;2024-03-22T10:23:08;98532.34;;;12.75;96.23
29907;BME280;16776;50.958;10.994;2024-03-22T10:25:35;98520.00;;;12.83;95.59
29907;BME280;16776;50.958;10.994;2024-03-22T10:28:01;98511.13;;;12.90;95.23
29907;BME280;16776;50.958;10.994;2024-03-22T10:30:28;98514.25;;;12.98;95.15
29907;BME280;16776;50.958;10.994;2024-03-22T10:32:54;98511.34;;;13.06;95.78
29907;BME280;16776;50.958;10.994;2024-03-22T10:35:21;98507.59;;;13.15;95.44
29907;BME280;16776;50.958;10.994;2024-03-22T10:37:49;98500.38;;;13.23;95.12
29907;BME280;16776;50.958;10.994;2024-03-22T10:40:18;98500.91;;;13.31;95.39
29907;BME280;16776;50.958;10.994;2024-03-22T10:42:45;98500.91;;;13.31;95.31
29907;BME280;16776;50.958;10.994;2024-03-22T10:45:12;98498.16;;;13.35;95.14
29907;BME280;16776;50.958;10.994;2024-03-22T10:47:38;98497.06;;;13.41;94.97
29907;BME280;16776;50.958;10.994;2024-03-22T10:50:06;98501.13;;;13.47;94.97
29907;BME280;16776;50.958;10.994;2024-03-22T10:52:38;98496.47;;;13.56;94.70
29907;BME280;16776;50.958;10.994;2024-03-22T10:55:08;98489.63;;;13.55;94.98
29907;BME280;16776;50.958;10.994;2024-03-22T10:57:39;98489.53;;;13.57;95.43
29907;BME280;16776;50.958;10.994;2024-03-22T11:00:09;98492.84;;;13.60;94.70
29907;BME280;16776;50.958;10.994;2024-03-22T11:02:35;98466.81;;;13.43;94.76
29907;BME280;16776;50.958;10.994;2024-03-22T11:05:02;98473.19;;;13.56;94.49
29907;BME280;16776;50.958;10.994;2024-03-22T11:07:31;98474.75;;;13.60;94.62
29907;BME280;16776;50.958;10.994;2024-03-22T11:10:00;98470.63;;;13.55;95.18
29907;BME280;16776;50.958;10.994;2024-03-22T11:12:26;98467.03;;;13.59;94.87
29907;BME280;16776;50.958;10.994;2024-03-22T11:14:59;98469.41;;;13.63;95.20
29907;BME280;16776;50.958;10.994;2024-03-22T11:17:25;98451.31;;;13.63;94.83
29907;BME280;16776;50.958;10.994;2024-03-22T11:19:52;98450.34;;;13.66;94.89
29907;BME280;16776;50.958;10.994;2024-03-22T11:22:18;98447.66;;;13.69;94.94
29907;BME280;16776;50.958;10.994;2024-03-22T11:24:44;98443.28;;;13.69;94.60
29907;BME280;16776;50.958;10.994;2024-03-22T11:27:13;98434.72;;;13.69;94.69
29907;BME280;16776;50.958;10.994;2024-03-22T11:29:40;98422.56;;;13.69;94.79
29907;BME280;16776;50.958;10.994;2024-03-22T11:32:08;98418.19;;;13.71;94.86
29907;BME280;16776;50.958;10.994;2024-03-22T11:34:35;98422.56;;;13.69;94.42
29907;BME280;16776;50.958;10.994;2024-03-22T11:37:02;98420.00;;;13.69;94.29
29907;BME280;16776;50.958;10.994;2024-03-22T11:39:28;98427.69;;;13.71;94.28
29907;BME280;16776;50.958;10.994;2024-03-22T11:41:54;98417.28;;;13.72;94.46
29907;BME280;16776;50.958;10.994;2024-03-22T11:44:22;98414.59;;;13.75;94.55
29907;BME280;16776;50.958;10.994;2024-03-22T11:46:50;98411.91;;;13.77;94.58
29907;BME280;16776;50.958;10.994;2024-03-22T11:49:18;98409.88;;;13.83;94.31
29907;BME280;16776;50.958;10.994;2024-03-22T11:51:44;98402.97;;;13.84;94.35
29907;BME280;16776;50.958;10.994;2024-03-22T11:54:11;98405.28;;;13.90;94.17
29907;BME280;16776;50.958;10.994;2024-03-22T11:56:37;98400.84;;;13.94;94.11
29907;BME280;16776;50.958;10.994;2024-03-22T11:59:06;98395.50;;;13.97;94.26
29907;BME280;16776;50.958;10.994;2024-03-22T12:01:32;98389.31;;;14.01;94.05
29907;BME280;16776;50.958;10.994;2024-03-22T12:03:59;98390.91;;;14.03;93.95
29907;BME280;16776;50.958;10.994;2024-03-22T12:06:26;98385.38;;;14.11;93.91
29907;BME280;16776;50.958;10.994;2024-03-22T12:08:53;98381.03;;;14.11;93.71
29907;BME280;16776;50.958;10.994;2024-03-22T12:11:19;98374.06;;;14.13;93.44
29907;BME280;16776;50.958;10.994;2024-03-22T12:13:46;98374.06;;;14.13;93.12
29907;BME280;16776;50.958;10.994;2024-03-22T12:16:13;98367.94;;;14.14;93.10
29907;BME280;16776;50.958;10.994;2024-03-22T12:18:38;98361.00;;;14.15;93.33
29907;BME280;16776;50.958;10.994;2024-03-22T12:21:05;98362.69;;;14.16;93.64
29907;BME280;16776;50.958;10.994;2024-03-22T12:23:32;98357.31;;;14.20;93.47
29907;BME280;16776;50.958;10.994;2024-03-22T12:25:58;98347.88;;;14.19;93.23
29907;BME280;16776;50.958;10.994;2024-03-22T12:28:24;98352.97;;;14.21;93.65
29907;BME280;16776;50.958;10.994;2024-03-22T12:30:50;98336.41;;;14.25;93.12
29907;BME280;16776;50.958;10.994;2024-03-22T12:33:16;98328.56;;;14.27;93.26
29907;BME280;16776;50.958;10.994;2024-03-22T12:35:43;98331.06;;;14.28;92.53
29907;BME280;16776;50.958;10.994;2024-03-22T12:38:09;98325.81;;;14.30;92.56
29907;BME280;16776;50.958;10.994;2024-03-22T12:40:40;98329.09;;;14.33;92.60
29907;BME280;16776;50.958;10.994;2024-03-22T12:43:06;98323.09;;;14.33;92.67
29907;BME280;16776;50.958;10.994;2024-03-22T12:45:32;98315.22;;;14.34;93.07
29907;BME280;16776;50.958;10.994;2024-03-22T12:47:58;98308.47;;;14.32;92.16
29907;BME280;16776;50.958;10.994;2024-03-22T12:50:24;98304.25;;;14.29;92.20
29907;BME280;16776;50.958;10.994;2024-03-22T12:52:50;98303.47;;;14.27;92.47
29907;BME280;16776;50.958;10.994;2024-03-22T12:55:17;98302.78;;;14.23;92.41
29907;BME280;16776;50.958;10.994;2024-03-22T12:57:44;98291.59;;;14.23;92.50